PWSweather.com
Personal Weather Stations
Station Observations
SHAHALMS1
Eftra, Falkenberg, HA

EftraFalkenberg, HA

Lat: 56.85, Lon: 12.65

Elevation: 140

Station Type:

http://hem.passagen.se/risarp101

High Low Average
Temperature 47.3°F8.5°C 40.8°F4.9°C 43.7°F6.5°C
Dew Point 46.2°F7.9°C 35.7°F2.1°C 41.4°F5.2°C
Winds 22.3 mph 35.9 kmh 2.5 mph 4.0 kmh 9.0 mph S14.5 kmh S
Wind Gusts 44.0 mph70.8 kmh 7.9 mph12.7 kmh 21.0 mph33.8 kmh
Humidity 96% 81% 92%
Pressure 29.36 in994.2 mb 29.06 in984.1 mb -
Precipitation 0.63 in16.0 mm - -
Hour Temp Dew Point Humidity Winds Wind Gusts Pressure Precip Precip Rate Daily Precip Total
12:00 AM 41.7°F5.4°C 40.1°F4.5°C 94% 8.0 mph SSE12.9 kmh SSE 20.0 mph32.2 kmh 29.36 in994.2 mb 0.10 in2.5 mm 0.00 in0.0 mm 0.10 in2.5 mm
12:15 AM 41.9°F5.5°C 40.3°F4.6°C 94% 8.2 mph SSE13.2 kmh SSE 17.2 mph27.7 kmh 29.36 in994.2 mb 0.16 in4.1 mm 0.24 in6.1 mm 0.06 in1.5 mm
12:27 AM 41.9°F5.5°C 40.3°F4.6°C 94% 5.8 mph SSE9.3 kmh SSE 7.9 mph12.7 kmh 29.36 in994.2 mb 0.11 in2.8 mm 0.00 in0.0 mm 0.06 in1.5 mm
12:28 AM 41.9°F5.5°C 40.3°F4.6°C 94% 5.1 mph SE8.2 kmh SE 7.9 mph12.7 kmh 29.36 in994.2 mb 0.11 in2.8 mm 0.00 in0.0 mm 0.06 in1.5 mm
12:29 AM 41.9°F5.5°C 40.3°F4.6°C 94% 5.0 mph SE8.0 kmh SE 7.9 mph12.7 kmh 29.36 in994.2 mb 0.11 in2.8 mm 0.00 in0.0 mm 0.06 in1.5 mm
12:30 AM 41.9°F5.5°C 40.3°F4.6°C 94% 6.1 mph SE9.8 kmh SE 11.8 mph19.0 kmh 29.36 in994.2 mb 0.11 in2.8 mm 0.00 in0.0 mm 0.06 in1.5 mm
12:31 AM 41.9°F5.5°C 40.3°F4.6°C 94% 6.4 mph SE10.3 kmh SE 11.8 mph19.0 kmh 29.36 in994.2 mb 0.11 in2.8 mm 0.00 in0.0 mm 0.06 in1.5 mm
12:45 AM 42.3°F5.7°C 40.7°F4.8°C 94% 6.4 mph SSE10.3 kmh SSE 16.1 mph25.9 kmh 29.36 in994.2 mb 0.16 in4.1 mm 0.21 in5.3 mm 0.11 in2.8 mm
01:00 AM 42.3°F5.7°C 40.7°F4.8°C 94% 8.0 mph SSE12.9 kmh SSE 19.3 mph31.1 kmh 29.33 in993.2 mb 0.11 in2.8 mm 0.00 in0.0 mm 0.11 in2.8 mm
01:15 AM 42.4°F5.8°C 40.8°F4.9°C 94% 5.5 mph S8.9 kmh S 13.6 mph21.9 kmh 29.33 in993.2 mb 0.10 in2.5 mm 0.00 in0.0 mm 0.16 in4.1 mm
01:30 AM 42.6°F5.9°C 41.0°F5.0°C 94% 5.4 mph S8.7 kmh S 14.7 mph23.7 kmh 29.33 in993.2 mb 0.10 in2.5 mm 0.00 in0.0 mm 0.16 in4.1 mm
01:45 AM 42.8°F6.0°C 41.5°F5.3°C 95% 6.3 mph SSE10.1 kmh SSE 16.8 mph27.0 kmh 29.30 in992.2 mb 0.10 in2.5 mm 0.00 in0.0 mm 0.21 in5.3 mm
02:00 AM 42.8°F6.0°C 41.5°F5.3°C 95% 8.0 mph S12.9 kmh S 17.2 mph27.7 kmh 29.27 in991.2 mb 0.10 in2.5 mm 0.00 in0.0 mm 0.21 in5.3 mm
02:15 AM 42.8°F6.0°C 41.5°F5.3°C 95% 7.2 mph S11.6 kmh S 17.9 mph28.8 kmh 29.30 in992.2 mb 0.10 in2.5 mm 0.00 in0.0 mm 0.26 in6.6 mm
02:30 AM 43.0°F6.1°C 41.6°F5.3°C 95% 9.5 mph S15.3 kmh S 30.4 mph48.9 kmh 29.30 in992.2 mb 0.10 in2.5 mm 0.00 in0.0 mm 0.26 in6.6 mm
02:45 AM 43.0°F6.1°C 41.6°F5.3°C 95% 9.4 mph S15.1 kmh S 24.7 mph39.8 kmh 29.30 in992.2 mb 0.10 in2.5 mm 0.00 in0.0 mm 0.31 in7.9 mm
03:00 AM 43.0°F6.1°C 41.6°F5.3°C 95% 9.8 mph S15.8 kmh S 22.9 mph36.9 kmh 29.30 in992.2 mb 0.10 in2.5 mm 0.00 in0.0 mm 0.31 in7.9 mm
03:15 AM 43.2°F6.2°C 41.8°F5.4°C 95% 9.8 mph S15.8 kmh S 22.2 mph35.7 kmh 29.27 in991.2 mb 0.05 in1.3 mm 0.00 in0.0 mm 0.31 in7.9 mm
03:30 AM 43.2°F6.2°C 41.8°F5.4°C 95% 8.5 mph S13.7 kmh S 19.3 mph31.1 kmh 29.24 in990.2 mb 0.11 in2.8 mm 0.24 in6.1 mm 0.38 in9.7 mm
03:45 AM 43.3°F6.3°C 42.0°F5.6°C 95% 9.0 mph S14.5 kmh S 21.5 mph34.6 kmh 29.24 in990.2 mb 0.06 in1.5 mm 0.00 in0.0 mm 0.38 in9.7 mm
04:00 AM 43.3°F6.3°C 42.0°F5.6°C 95% 10.4 mph S16.7 kmh S 30.8 mph49.6 kmh 29.24 in990.2 mb 0.06 in1.5 mm 0.00 in0.0 mm 0.38 in9.7 mm
04:15 AM 43.3°F6.3°C 42.0°F5.6°C 95% 9.3 mph S15.0 kmh S 19.3 mph31.1 kmh 29.21 in989.2 mb 0.10 in2.5 mm 0.16 in4.1 mm 0.41 in10.4 mm
04:30 AM 43.3°F6.3°C 42.0°F5.6°C 95% 9.5 mph S15.3 kmh S 20.8 mph33.5 kmh 29.24 in990.2 mb 0.04 in1.0 mm 0.00 in0.0 mm 0.41 in10.4 mm
04:45 AM 43.3°F6.3°C 42.3°F5.7°C 96% 7.5 mph S12.1 kmh S 17.2 mph27.7 kmh 29.24 in990.2 mb 0.04 in1.0 mm 0.00 in0.0 mm 0.41 in10.4 mm
05:00 AM 43.3°F6.3°C 42.3°F5.7°C 96% 9.5 mph S15.3 kmh S 22.9 mph36.9 kmh 29.24 in990.2 mb 0.04 in1.0 mm 0.00 in0.0 mm 0.41 in10.4 mm
05:15 AM 43.3°F6.3°C 42.3°F5.7°C 96% 8.7 mph S14.0 kmh S 20.4 mph32.8 kmh 29.24 in990.2 mb 0.00 in0.0 mm 0.00 in0.0 mm 0.41 in10.4 mm
05:30 AM 43.3°F6.3°C 42.3°F5.7°C 96% 6.3 mph S10.1 kmh S 12.9 mph20.8 kmh 29.24 in990.2 mb 0.00 in0.0 mm 0.00 in0.0 mm 0.41 in10.4 mm
05:45 AM 43.3°F6.3°C 42.3°F5.7°C 96% 7.4 mph S11.9 kmh S 14.3 mph23.0 kmh 29.24 in990.2 mb 0.00 in0.0 mm 0.00 in0.0 mm 0.41 in10.4 mm
06:00 AM 43.5°F6.4°C 42.5°F5.8°C 96% 7.4 mph S11.9 kmh S 16.5 mph26.6 kmh 29.21 in989.2 mb 0.00 in0.0 mm 0.00 in0.0 mm 0.41 in10.4 mm
06:15 AM 43.7°F6.5°C 42.6°F5.9°C 96% 6.9 mph S11.1 kmh S 16.8 mph27.0 kmh 29.21 in989.2 mb 0.00 in0.0 mm 0.00 in0.0 mm 0.41 in10.4 mm
06:30 AM 43.7°F6.5°C 42.6°F5.9°C 96% 7.6 mph S12.2 kmh S 17.5 mph28.2 kmh 29.21 in989.2 mb 0.00 in0.0 mm 0.00 in0.0 mm 0.41 in10.4 mm
06:45 AM 43.9°F6.6°C 42.8°F6.0°C 96% 7.0 mph S11.3 kmh S 17.2 mph27.7 kmh 29.21 in989.2 mb 0.00 in0.0 mm 0.00 in0.0 mm 0.41 in10.4 mm
07:00 AM 44.1°F6.7°C 43.0°F6.1°C 96% 6.6 mph S10.6 kmh S 15.7 mph25.3 kmh 29.21 in989.2 mb 0.00 in0.0 mm 0.00 in0.0 mm 0.41 in10.4 mm
07:15 AM 43.9°F6.6°C 42.8°F6.0°C 96% 8.1 mph S13.0 kmh S 20.4 mph32.8 kmh 29.21 in989.2 mb 0.00 in0.0 mm 0.00 in0.0 mm 0.41 in10.4 mm
07:30 AM 44.1°F6.7°C 43.0°F6.1°C 96% 6.3 mph S10.1 kmh S 17.9 mph28.8 kmh 29.21 in989.2 mb 0.00 in0.0 mm 0.00 in0.0 mm 0.41 in10.4 mm
07:45 AM 44.1°F6.7°C 43.0°F6.1°C 96% 8.4 mph S13.5 kmh S 23.6 mph38.0 kmh 29.21 in989.2 mb 0.00 in0.0 mm 0.00 in0.0 mm 0.41 in10.4 mm
08:00 AM 44.2°F6.8°C 43.2°F6.2°C 96% 5.5 mph S8.9 kmh S 17.5 mph28.2 kmh 29.21 in989.2 mb 0.00 in0.0 mm 0.00 in0.0 mm 0.41 in10.4 mm
08:15 AM 44.2°F6.8°C 43.2°F6.2°C 96% 5.6 mph S9.0 kmh S 15.7 mph25.3 kmh 29.21 in989.2 mb 0.06 in1.5 mm 0.24 in6.1 mm 0.48 in12.2 mm
08:31 AM 44.4°F6.9°C 43.4°F6.3°C 96% 4.9 mph S7.9 kmh S 15.0 mph24.1 kmh 29.21 in989.2 mb 0.06 in1.5 mm 0.00 in0.0 mm 0.48 in12.2 mm
08:45 AM 44.6°F7.0°C 43.5°F6.4°C 96% 6.4 mph S10.3 kmh S 16.1 mph25.9 kmh 29.21 in989.2 mb 0.06 in1.5 mm 0.00 in0.0 mm 0.48 in12.2 mm
09:00 AM 44.8°F7.1°C 43.7°F6.5°C 96% 4.9 mph S7.9 kmh S 10.0 mph16.1 kmh 29.21 in989.2 mb 0.06 in1.5 mm 0.00 in0.0 mm 0.48 in12.2 mm
09:15 AM 44.8°F7.1°C 43.7°F6.5°C 96% 5.2 mph S8.4 kmh S 13.6 mph21.9 kmh 29.21 in989.2 mb 0.00 in0.0 mm 0.00 in0.0 mm 0.48 in12.2 mm
09:30 AM 45.0°F7.2°C 43.9°F6.6°C 96% 6.9 mph S11.1 kmh S 20.0 mph32.2 kmh 29.21 in989.2 mb 0.00 in0.0 mm 0.00 in0.0 mm 0.48 in12.2 mm
09:45 AM 45.1°F7.3°C 44.1°F6.7°C 96% 6.1 mph S9.8 kmh S 20.8 mph33.5 kmh 29.21 in989.2 mb 0.00 in0.0 mm 0.00 in0.0 mm 0.48 in12.2 mm
10:00 AM 45.5°F7.5°C 44.4°F6.9°C 96% 4.8 mph SSE7.7 kmh SSE 15.4 mph24.8 kmh 29.21 in989.2 mb 0.00 in0.0 mm 0.00 in0.0 mm 0.48 in12.2 mm
10:15 AM 45.9°F7.7°C 44.8°F7.1°C 96% 4.1 mph SSE6.6 kmh SSE 12.2 mph19.6 kmh 29.21 in989.2 mb 0.00 in0.0 mm 0.00 in0.0 mm 0.48 in12.2 mm
10:30 AM 46.4°F8.0°C 45.3°F7.4°C 96% 5.4 mph SE8.7 kmh SE 10.4 mph16.7 kmh 29.18 in988.1 mb 0.00 in0.0 mm 0.00 in0.0 mm 0.48 in12.2 mm
10:45 AM 46.6°F8.1°C 45.5°F7.5°C 96% 3.0 mph SE4.8 kmh SE 9.7 mph15.6 kmh 29.18 in988.1 mb 0.00 in0.0 mm 0.00 in0.0 mm 0.48 in12.2 mm
11:00 AM 46.6°F8.1°C 45.5°F7.5°C 96% 2.5 mph SE4.0 kmh SE 11.1 mph17.9 kmh 29.18 in988.1 mb 0.00 in0.0 mm 0.00 in0.0 mm 0.48 in12.2 mm
11:15 AM 46.6°F8.1°C 45.5°F7.5°C 96% 3.3 mph SE5.3 kmh SE 10.4 mph16.7 kmh 29.18 in988.1 mb 0.00 in0.0 mm 0.00 in0.0 mm 0.48 in12.2 mm
11:30 AM 46.9°F8.3°C 45.9°F7.7°C 96% 5.3 mph SE8.5 kmh SE 12.9 mph20.8 kmh 29.15 in987.1 mb 0.00 in0.0 mm 0.00 in0.0 mm 0.48 in12.2 mm
11:45 AM 47.3°F8.5°C 46.2°F7.9°C 96% 5.2 mph SE8.4 kmh SE 14.3 mph23.0 kmh 29.18 in988.1 mb 0.00 in0.0 mm 0.00 in0.0 mm 0.48 in12.2 mm
12:00 PM 46.9°F8.3°C 45.6°F7.6°C 95% 6.4 mph SE10.3 kmh SE 12.5 mph20.1 kmh 29.18 in988.1 mb 0.00 in0.0 mm 0.00 in0.0 mm 0.48 in12.2 mm
12:15 PM 47.1°F8.4°C 45.8°F7.7°C 95% 4.6 mph ESE7.4 kmh ESE 12.9 mph20.8 kmh 29.18 in988.1 mb 0.00 in0.0 mm 0.00 in0.0 mm 0.48 in12.2 mm
12:30 PM 47.1°F8.4°C 45.8°F7.7°C 95% 8.4 mph ESE13.5 kmh ESE 16.8 mph27.0 kmh 29.18 in988.1 mb 0.00 in0.0 mm 0.00 in0.0 mm 0.48 in12.2 mm
12:45 PM 46.8°F8.2°C 45.4°F7.4°C 95% 6.2 mph SE10.0 kmh SE 16.8 mph27.0 kmh 29.15 in987.1 mb 0.00 in0.0 mm 0.00 in0.0 mm 0.48 in12.2 mm
01:00 PM 46.8°F8.2°C 45.4°F7.4°C 95% 5.5 mph SE8.9 kmh SE 12.5 mph20.1 kmh 29.15 in987.1 mb 0.00 in0.0 mm 0.00 in0.0 mm 0.48 in12.2 mm
01:15 PM 46.8°F8.2°C 45.4°F7.4°C 95% 6.3 mph SE10.1 kmh SE 15.7 mph25.3 kmh 29.15 in987.1 mb 0.00 in0.0 mm 0.00 in0.0 mm 0.48 in12.2 mm
01:30 PM 46.8°F8.2°C 45.4°F7.4°C 95% 6.5 mph SE10.5 kmh SE 14.0 mph22.5 kmh 29.12 in986.1 mb 0.05 in1.3 mm 0.20 in5.1 mm 0.53 in13.5 mm
01:45 PM 46.8°F8.2°C 45.4°F7.4°C 95% 7.4 mph SE11.9 kmh SE 19.7 mph31.7 kmh 29.12 in986.1 mb 0.05 in1.3 mm 0.00 in0.0 mm 0.53 in13.5 mm
02:00 PM 46.6°F8.1°C 45.2°F7.3°C 95% 7.9 mph SE12.7 kmh SE 17.2 mph27.7 kmh 29.12 in986.1 mb 0.10 in2.5 mm 0.07 in1.8 mm 0.58 in14.7 mm
02:15 PM 46.8°F8.2°C 45.4°F7.4°C 95% 7.0 mph SE11.3 kmh SE 19.7 mph31.7 kmh 29.12 in986.1 mb 0.10 in2.5 mm 0.00 in0.0 mm 0.58 in14.7 mm
02:30 PM 46.8°F8.2°C 45.4°F7.4°C 95% 7.8 mph SSE12.6 kmh SSE 15.4 mph24.8 kmh 29.12 in986.1 mb 0.05 in1.3 mm 0.00 in0.0 mm 0.58 in14.7 mm
02:45 PM 46.8°F8.2°C 45.4°F7.4°C 95% 6.6 mph SSE10.6 kmh SSE 17.2 mph27.7 kmh 29.09 in985.1 mb 0.05 in1.3 mm 0.00 in0.0 mm 0.58 in14.7 mm
03:00 PM 46.8°F8.2°C 45.4°F7.4°C 95% 5.6 mph SSE9.0 kmh SSE 20.0 mph32.2 kmh 29.09 in985.1 mb 0.00 in0.0 mm 0.00 in0.0 mm 0.58 in14.7 mm
03:15 PM 46.9°F8.3°C 45.6°F7.6°C 95% 8.2 mph SSE13.2 kmh SSE 22.2 mph35.7 kmh 29.09 in985.1 mb 0.05 in1.3 mm 0.20 in5.1 mm 0.63 in16.0 mm
03:30 PM 46.9°F8.3°C 45.6°F7.6°C 95% 7.0 mph SSE11.3 kmh SSE 16.5 mph26.6 kmh 29.06 in984.1 mb 0.05 in1.3 mm 0.00 in0.0 mm 0.63 in16.0 mm
03:45 PM 47.1°F8.4°C 45.8°F7.7°C 95% 7.2 mph S11.6 kmh S 20.4 mph32.8 kmh 29.06 in984.1 mb 0.05 in1.3 mm 0.00 in0.0 mm 0.63 in16.0 mm
04:00 PM 46.8°F8.2°C 44.8°F7.1°C 93% 14.4 mph S23.2 kmh S 42.6 mph68.6 kmh 29.06 in984.1 mb 0.05 in1.3 mm 0.00 in0.0 mm 0.63 in16.0 mm
04:15 PM 45.1°F7.3°C 41.8°F5.4°C 88% 13.5 mph S21.7 kmh S 35.1 mph56.5 kmh 29.09 in985.1 mb 0.00 in0.0 mm 0.00 in0.0 mm 0.63 in16.0 mm
04:30 PM 44.4°F6.9°C 40.8°F4.9°C 87% 13.3 mph S21.4 kmh S 29.0 mph46.7 kmh 29.09 in985.1 mb 0.00 in0.0 mm 0.00 in0.0 mm 0.63 in16.0 mm
04:45 PM 43.3°F6.3°C 38.2°F3.4°C 82% 22.3 mph S35.9 kmh S 44.0 mph70.8 kmh 29.12 in986.1 mb 0.00 in0.0 mm 0.00 in0.0 mm 0.63 in16.0 mm
05:00 PM 42.4°F5.8°C 37.3°F2.9°C 82% 21.1 mph SSW34.0 kmh SSW 42.6 mph68.6 kmh 29.12 in986.1 mb 0.00 in0.0 mm 0.00 in0.0 mm 0.63 in16.0 mm
05:15 PM 42.1°F5.6°C 37.3°F2.9°C 83% 21.8 mph S35.1 kmh S 43.3 mph69.7 kmh 29.12 in986.1 mb 0.00 in0.0 mm 0.00 in0.0 mm 0.63 in16.0 mm
05:30 PM 41.7°F5.4°C 37.2°F2.9°C 84% 16.9 mph SSW27.2 kmh SSW 36.5 mph58.7 kmh 29.12 in986.1 mb 0.00 in0.0 mm 0.00 in0.0 mm 0.63 in16.0 mm
05:45 PM 41.5°F5.3°C 37.4°F3.0°C 85% 15.6 mph SW25.1 kmh SW 35.8 mph57.6 kmh 29.15 in987.1 mb 0.00 in0.0 mm 0.00 in0.0 mm 0.63 in16.0 mm
06:00 PM 41.5°F5.3°C 37.7°F3.2°C 86% 15.3 mph SW24.6 kmh SW 28.6 mph46.0 kmh 29.18 in988.1 mb 0.00 in0.0 mm 0.00 in0.0 mm 0.63 in16.0 mm
06:15 PM 41.5°F5.3°C 38.0°F3.3°C 87% 9.3 mph S15.0 kmh S 20.0 mph32.2 kmh 29.18 in988.1 mb 0.00 in0.0 mm 0.00 in0.0 mm 0.63 in16.0 mm
06:30 PM 41.5°F5.3°C 38.5°F3.6°C 89% 9.1 mph SSW14.6 kmh SSW 21.8 mph35.1 kmh 29.21 in989.2 mb 0.00 in0.0 mm 0.00 in0.0 mm 0.63 in16.0 mm
06:45 PM 41.9°F5.5°C 38.6°F3.7°C 88% 15.2 mph SSW24.5 kmh SSW 32.2 mph51.8 kmh 29.18 in988.1 mb 0.00 in0.0 mm 0.00 in0.0 mm 0.63 in16.0 mm
07:00 PM 42.1°F5.6°C 38.5°F3.6°C 87% 16.1 mph SSW25.9 kmh SSW 31.9 mph51.3 kmh 29.18 in988.1 mb 0.00 in0.0 mm 0.00 in0.0 mm 0.63 in16.0 mm
07:15 PM 42.3°F5.7°C 38.1°F3.4°C 85% 18.5 mph S29.8 kmh S 31.9 mph51.3 kmh 29.18 in988.1 mb 0.00 in0.0 mm 0.00 in0.0 mm 0.63 in16.0 mm
07:30 PM 42.3°F5.7°C 37.8°F3.2°C 84% 15.4 mph S24.8 kmh S 27.9 mph44.9 kmh 29.21 in989.2 mb 0.00 in0.0 mm 0.00 in0.0 mm 0.63 in16.0 mm
07:45 PM 41.9°F5.5°C 37.1°F2.8°C 83% 14.5 mph S23.3 kmh S 34.0 mph54.7 kmh 29.15 in987.1 mb 0.00 in0.0 mm 0.00 in0.0 mm 0.63 in16.0 mm
08:00 PM 41.9°F5.5°C 37.1°F2.8°C 83% 13.7 mph SW22.0 kmh SW 27.6 mph44.4 kmh 29.18 in988.1 mb 0.00 in0.0 mm 0.00 in0.0 mm 0.63 in16.0 mm
08:15 PM 41.9°F5.5°C 37.1°F2.8°C 83% 14.9 mph SSW24.0 kmh SSW 34.0 mph54.7 kmh 29.18 in988.1 mb 0.00 in0.0 mm 0.00 in0.0 mm 0.63 in16.0 mm
08:30 PM 41.7°F5.4°C 36.9°F2.7°C 83% 13.6 mph SSW21.9 kmh SSW 27.6 mph44.4 kmh 29.18 in988.1 mb 0.00 in0.0 mm 0.00 in0.0 mm 0.63 in16.0 mm
08:45 PM 41.9°F5.5°C 37.1°F2.8°C 83% 13.2 mph S21.2 kmh S 27.2 mph43.8 kmh 29.18 in988.1 mb 0.00 in0.0 mm 0.00 in0.0 mm 0.63 in16.0 mm
09:00 PM 41.9°F5.5°C 36.8°F2.7°C 82% 13.3 mph SSW21.4 kmh SSW 25.1 mph40.4 kmh 29.21 in989.2 mb 0.00 in0.0 mm 0.00 in0.0 mm 0.63 in16.0 mm
09:15 PM 41.7°F5.4°C 36.3°F2.4°C 81% 13.1 mph SSW21.1 kmh SSW 30.8 mph49.6 kmh 29.18 in988.1 mb 0.00 in0.0 mm 0.00 in0.0 mm 0.63 in16.0 mm
09:30 PM 41.5°F5.3°C 36.5°F2.5°C 82% 11.5 mph S18.5 kmh S 22.9 mph36.9 kmh 29.18 in988.1 mb 0.00 in0.0 mm 0.00 in0.0 mm 0.63 in16.0 mm
09:45 PM 41.7°F5.4°C 36.9°F2.7°C 83% 11.7 mph SSW18.8 kmh SSW 23.3 mph37.5 kmh 29.18 in988.1 mb 0.00 in0.0 mm 0.00 in0.0 mm 0.63 in16.0 mm
10:00 PM 41.5°F5.3°C 36.1°F2.3°C 81% 13.9 mph SSW22.4 kmh SSW 30.8 mph49.6 kmh 29.18 in988.1 mb 0.00 in0.0 mm 0.00 in0.0 mm 0.63 in16.0 mm
10:15 PM 41.0°F5.0°C 35.9°F2.2°C 82% 10.9 mph S17.5 kmh S 26.8 mph43.1 kmh 29.15 in987.1 mb 0.00 in0.0 mm 0.00 in0.0 mm 0.63 in16.0 mm
10:30 PM 41.0°F5.0°C 35.9°F2.2°C 82% 11.2 mph S18.0 kmh S 23.6 mph38.0 kmh 29.18 in988.1 mb 0.00 in0.0 mm 0.00 in0.0 mm 0.63 in16.0 mm
10:45 PM 40.8°F4.9°C 35.7°F2.1°C 82% 11.0 mph S17.7 kmh S 27.2 mph43.8 kmh 29.15 in987.1 mb 0.00 in0.0 mm 0.00 in0.0 mm 0.63 in16.0 mm
11:00 PM 40.8°F4.9°C 36.1°F2.3°C 83% 9.9 mph S15.9 kmh S 29.0 mph46.7 kmh 29.15 in987.1 mb 0.00 in0.0 mm 0.00 in0.0 mm 0.63 in16.0 mm
11:15 PM 41.2°F5.1°C 36.4°F2.4°C 83% 11.0 mph S17.7 kmh S 20.0 mph32.2 kmh 29.18 in988.1 mb 0.00 in0.0 mm 0.00 in0.0 mm 0.63 in16.0 mm
11:30 PM 41.5°F5.3°C 36.8°F2.7°C 83% 11.0 mph S17.7 kmh S 24.3 mph39.1 kmh 29.18 in988.1 mb 0.00 in0.0 mm 0.00 in0.0 mm 0.63 in16.0 mm
11:45 PM 41.4°F5.2°C 36.9°F2.7°C 84% 9.7 mph S15.6 kmh S 25.1 mph40.4 kmh 29.18 in988.1 mb 0.00 in0.0 mm 0.00 in0.0 mm 0.63 in16.0 mm